Time;durP1;ratioP1;P1;durP2;ratioP2;P2;SDS_P1;SDS_P2;PMS_P1;PMS_P2;Temp;Humidity;BMP_temperature;BMP_pressure;BME280_temperature;BME280_humidity;BME280_pressure;Samples;Min_cycle;Max_cycle;Signal;HPM_P1;HPM_P2
2022/01/28 00:00:06;;;;;;;4.00;1.67;;;;;;;17.54;48.87;103080.84;4992721;28;20575;-83
2022/01/28 00:02:59;;;;;;;5.20;1.55;;;;;;;17.52;49.02;103083.41;4972393;28;20487;-83
2022/01/28 00:05:21;;;;;;;4.82;1.90;;;;;;;17.53;49.01;103090.38;4991664;28;20521;-83
2022/01/28 00:07:47;;;;;;;4.20;1.60;;;;;;;17.54;48.75;103079.13;5007924;28;20080;-83
2022/01/28 00:10:12;;;;;;;4.88;1.83;;;;;;;17.52;48.71;103070.38;5005748;28;20023;-83
2022/01/28 00:12:51;;;;;;;3.40;1.73;;;;;;;17.52;48.60;103072.09;4971581;28;20029;-83
2022/01/28 00:15:28;;;;;;;5.03;1.92;;;;;;;17.52;48.81;103077.31;4958741;28;20031;-83
2022/01/28 00:20:57;;;;;;;4.10;1.60;;;;;;;17.50;48.81;103079.88;4979499;28;20395;-81
2022/01/28 00:37:11;;;;;;;4.40;1.67;;;;;;;17.49;48.44;103093.75;4989167;28;20037;-81
2022/01/28 00:39:36;;;;;;;3.40;1.50;;;;;;;17.50;48.65;103099.81;4972810;28;20034;-81
2022/01/28 00:42:02;;;;;;;5.53;1.90;;;;;;;17.50;48.53;103116.31;4985632;28;20022;-80
2022/01/28 00:44:28;;;;;;;3.38;1.63;;;;;;;17.50;48.35;103118.91;4983776;28;20026;-82
2022/01/28 00:46:53;;;;;;;4.70;1.67;;;;;;;17.48;48.42;103118.91;4969631;28;20030;-81
2022/01/28 00:49:19;;;;;;;3.63;1.40;;;;;;;17.48;48.66;103112.78;4951881;28;20117;-81
2022/01/28 00:51:45;;;;;;;3.58;1.60;;;;;;;17.48;48.39;103118.00;4967350;28;20492;-80
2022/01/28 00:54:11;;;;;;;3.75;1.55;;;;;;;17.48;48.43;103116.28;4983964;28;20392;-80
2022/01/28 00:56:36;;;;;;;4.53;1.70;;;;;;;17.47;48.58;103121.44;4983372;28;20022;-80
2022/01/28 00:59:02;;;;;;;4.03;1.50;;;;;;;17.47;48.14;103132.75;4982866;28;20064;-82
2022/01/28 01:01:29;;;;;;;3.33;1.60;;;;;;;17.48;48.37;103133.59;4983047;28;20113;-82
2022/01/28 01:03:55;;;;;;;4.25;1.63;;;;;;;17.47;48.30;103130.13;4952522;28;20392;-81
2022/01/28 01:06:21;;;;;;;5.20;1.75;;;;;;;17.47;48.32;103134.47;4967852;28;20027;-81
2022/01/28 01:08:46;;;;;;;4.05;1.63;;;;;;;17.47;48.59;103124.06;4983927;28;20034;-81
2022/01/28 01:11:12;;;;;;;4.03;1.67;;;;;;;17.47;48.34;103132.75;4982957;28;20493;-81
2022/01/28 01:13:39;;;;;;;4.50;1.50;;;;;;;17.46;48.37;103138.78;4951816;28;20129;-81
2022/01/28 01:16:07;;;;;;;3.33;1.38;;;;;;;17.48;48.33;103141.41;4983623;28;20027;-81
2022/01/28 01:19:12;;;;;;;3.17;1.48;;;;;;;17.46;48.23;103144.00;4981519;28;20030;-81
2022/01/28 01:21:26;;;;;;;3.40;1.50;;;;;;;17.47;48.21;103144.88;4984621;28;20046;-80
2022/01/28 01:23:55;;;;;;;4.57;1.80;;;;;;;17.45;48.23;103147.44;4951826;28;20038;-80
2022/01/28 01:26:30;;;;;;;4.55;1.60;;;;;;;17.47;48.30;103144.88;4999785;28;20031;-81
2022/01/28 01:28:56;;;;;;;4.13;1.50;;;;;;;17.46;48.17;103151.81;4980783;28;20061;-81
2022/01/28 01:31:21;;;;;;;4.25;1.50;;;;;;;17.46;48.38;103159.63;4981522;28;20101;-80
2022/01/28 01:34:12;;;;;;;2.88;1.40;;;;;;;17.45;48.12;103160.44;4981738;28;20023;-81
2022/01/28 01:36:35;;;;;;;4.57;1.42;;;;;;;17.46;48.17;103172.63;4984287;28;20069;-81
2022/01/28 01:39:02;;;;;;;4.03;1.45;;;;;;;17.46;48.30;103175.25;4981154;28;20019;-80
2022/01/28 01:41:36;;;;;;;3.00;1.40;;;;;;;17.45;48.16;103176.06;4998956;28;20026;-81
2022/01/28 01:44:16;;;;;;;3.75;1.60;;;;;;;17.45;48.26;103168.25;4999340;28;20022;-82
2022/01/28 01:52:04;;;;;;;;;;;;;;;17.44;48.45;103189.94;5002040;28;20056;-81
2022/01/28 01:54:35;;;;;;;3.33;1.30;;;;;;;17.43;48.31;103188.16;4968151;28;19913;-81
2022/01/28 01:57:02;;;;;;;3.92;1.35;;;;;;;17.44;48.21;103189.94;4999749;28;20023;-81
2022/01/28 01:59:27;;;;;;;5.07;1.60;;;;;;;17.44;48.00;103186.41;4999591;28;20054;-81
2022/01/28 02:01:52;;;;;;;3.13;1.35;;;;;;;17.43;48.13;103197.69;4981231;28;20026;-81
2022/01/28 02:04:18;;;;;;;5.88;1.58;;;;;;;17.42;48.13;103204.63;4966005;28;20031;-80
2022/01/28 02:06:44;;;;;;;4.45;1.33;;;;;;;17.43;48.00;103203.78;4980928;28;20032;-81
2022/01/28 02:09:10;;;;;;;3.45;1.42;;;;;;;17.42;47.94;103211.53;4998908;28;20030;-80
2022/01/28 02:11:35;;;;;;;5.03;1.40;;;;;;;17.42;47.97;103198.50;4981931;28;20015;-80
2022/01/28 02:14:02;;;;;;;3.95;1.40;;;;;;;17.41;48.15;103200.25;4981120;28;20037;-82
2022/01/28 02:16:28;;;;;;;3.42;1.30;;;;;;;17.41;48.30;103199.38;4966302;28;20121;-82
2022/01/28 02:18:55;;;;;;;3.42;1.45;;;;;;;17.40;47.93;103211.50;4981196;28;20094;-80
2022/01/28 02:21:21;;;;;;;3.95;1.33;;;;;;;17.41;48.17;103209.78;4981519;28;20035;-81
2022/01/28 02:23:51;;;;;;;4.63;1.63;;;;;;;17.38;48.06;103213.19;4966942;28;20026;-80
2022/01/28 02:26:17;;;;;;;3.92;1.55;;;;;;;17.39;48.12;103211.44;4983273;28;20041;-81
2022/01/28 02:28:47;;;;;;;3.47;1.60;;;;;;;17.38;47.95;103218.38;4966743;28;20030;-81
2022/01/28 02:31:18;;;;;;;3.83;1.30;;;;;;;17.36;48.04;103220.06;4985771;28;20052;-81
2022/01/28 02:33:43;;;;;;;3.65;1.20;;;;;;;17.38;48.02;103222.72;4986474;28;20488;-81
2022/01/28 02:36:09;;;;;;;3.20;1.33;;;;;;;17.38;48.04;103226.19;4995647;28;20034;-81
2022/01/28 02:38:35;;;;;;;4.47;1.38;;;;;;;17.39;47.96;103216.66;4962896;28;20033;-81
2022/01/28 02:41:02;;;;;;;3.42;1.10;;;;;;;17.39;48.11;103229.66;4988219;28;20077;-81
2022/01/28 02:46:03;;;;;;;2.38;1.33;;;;;;;17.36;48.06;103227.88;5004782;28;20033;-81
2022/01/28 02:48:30;;;;;;;3.05;1.30;;;;;;;17.36;47.90;103227.88;4972999;28;20031;-81
2022/01/28 02:53:28;;;;;;;3.80;1.30;;;;;;;17.37;48.04;103236.53;5005673;28;20120;-81
2022/01/28 02:56:00;;;;;;;3.25;1.23;;;;;;;17.36;47.76;103237.41;4966675;28;20042;-81
2022/01/28 02:58:26;;;;;;;4.32;1.60;;;;;;;17.36;47.86;103248.69;4993028;28;20042;-81
2022/01/28 03:00:55;;;;;;;4.18;1.60;;;;;;;17.35;47.99;103241.69;4973755;28;20038;-81
2022/01/28 03:03:23;;;;;;;4.20;1.38;;;;;;;17.34;48.04;103250.34;4989741;28;20022;-81
2022/01/28 03:05:50;;;;;;;2.90;1.25;;;;;;;17.35;47.73;103253.84;4989135;28;20547;-81
2022/01/28 03:08:16;;;;;;;2.30;0.95;;;;;;;17.32;48.02;103248.56;4974914;28;20031;-81
2022/01/28 03:10:48;;;;;;;3.92;1.35;;;;;;;17.32;47.89;103246.81;4998730;28;20036;-81
2022/01/28 03:13:30;;;;;;;2.60;1.20;;;;;;;17.32;47.92;103249.44;4993000;28;20028;-81
2022/01/28 03:16:06;;;;;;;3.65;1.42;;;;;;;17.32;47.81;103257.22;4976968;28;20101;-81
2022/01/28 03:18:42;;;;;;;3.65;1.35;;;;;;;17.32;47.94;103252.03;4979281;28;20026;-81
2022/01/28 03:21:19;;;;;;;3.70;1.20;;;;;;;17.32;47.97;103249.44;4983067;28;20034;-81
2022/01/28 03:23:44;;;;;;;2.90;1.38;;;;;;;17.32;47.90;103251.16;4982351;28;20037;-81
2022/01/28 03:26:10;;;;;;;2.80;1.08;;;;;;;17.32;47.60;103249.44;4958452;28;20030;-81
2022/01/28 03:28:35;;;;;;;2.92;1.23;;;;;;;17.31;47.86;103249.38;4991511;28;20036;-81
2022/01/28 03:31:01;;;;;;;4.30;1.70;;;;;;;17.31;47.60;103249.38;4958527;28;20106;-80
2022/01/28 03:33:26;;;;;;;2.92;1.02;;;;;;;17.30;47.69;103243.28;4991290;28;20046;-80
2022/01/28 03:35:52;;;;;;;4.13;1.52;;;;;;;17.29;47.70;103246.75;4977408;28;20443;-81
2022/01/28 03:38:17;;;;;;;2.92;1.15;;;;;;;17.28;47.62;103247.56;4958207;28;20022;-81
2022/01/28 03:40:43;;;;;;;3.30;1.33;;;;;;;17.28;47.55;103248.44;4957407;28;20049;-80
2022/01/28 03:43:08;;;;;;;2.47;1.00;;;;;;;17.27;47.72;103243.22;4957173;28;20034;-80
2022/01/28 03:45:34;;;;;;;3.58;1.30;;;;;;;17.27;47.67;103240.63;4973778;28;20042;-80
2022/01/28 03:47:59;;;;;;;3.67;1.38;;;;;;;17.29;47.85;103244.16;4993322;28;20045;-81
2022/01/28 03:50:25;;;;;;;3.28;1.40;;;;;;;17.27;47.70;103246.69;4975450;28;20026;-80
2022/01/28 03:52:50;;;;;;;2.50;0.90;;;;;;;17.26;47.97;103250.09;4974095;28;20077;-80
2022/01/28 03:55:16;;;;;;;3.05;1.17;;;;;;;17.26;47.77;103247.50;4973500;28;20030;-80
2022/01/28 03:57:41;;;;;;;3.40;1.23;;;;;;;17.27;47.59;103251.03;4957333;28;20037;-80
2022/01/28 04:00:07;;;;;;;3.33;1.35;;;;;;;17.28;47.47;103250.16;4958104;28;20089;-80
2022/01/28 04:02:36;;;;;;;3.75;1.33;;;;;;;17.26;47.71;103252.72;4990107;28;20030;-80
2022/01/28 04:13:23;;;;;;;3.05;1.25;;;;;;;17.25;47.52;103265.69;4975186;28;20033;-81
2022/01/28 04:18:33;;;;;;;3.38;1.17;;;;;;;17.24;47.83;103280.41;4976585;28;20037;-80
2022/01/28 04:20:58;;;;;;;3.70;1.25;;;;;;;17.24;47.67;103285.63;4971190;28;20473;-80
2022/01/28 04:23:23;;;;;;;3.70;1.25;;;;;;;17.25;47.90;103289.13;4955713;28;20035;-80
2022/01/28 04:25:49;;;;;;;3.20;1.33;;;;;;;17.24;47.61;103295.16;4970762;28;20117;-80
2022/01/28 04:28:14;;;;;;;2.97;1.15;;;;;;;17.24;47.52;103284.75;4986268;28;20157;-80
2022/01/28 04:30:39;;;;;;;3.28;1.05;;;;;;;17.25;47.49;103291.72;4969955;28;20040;-81
2022/01/28 04:33:05;;;;;;;3.45;1.27;;;;;;;17.22;47.82;103294.22;4954190;28;20487;-81
2022/01/28 04:35:31;;;;;;;2.53;1.30;;;;;;;17.22;47.74;103286.41;4985389;28;20168;-81
2022/01/28 04:38:21;;;;;;;3.08;1.20;;;;;;;17.22;47.74;103294.22;4985209;28;20516;-80
2022/01/28 04:41:11;;;;;;;4.30;1.15;;;;;;;17.21;47.56;103295.94;4986047;28;20502;-80
2022/01/28 04:43:46;;;;;;;3.42;1.17;;;;;;;17.21;47.56;103301.16;4959914;28;20042;-80
2022/01/28 04:46:24;;;;;;;3.35;1.10;;;;;;;17.20;47.64;103302.00;4985064;28;20041;-81
2022/01/28 04:49:16;;;;;;;2.72;1.30;;;;;;;17.21;47.81;103308.06;4968355;28;20037;-81
2022/01/28 04:54:38;;;;;;;2.92;1.08;;;;;;;17.21;47.74;103300.28;4987484;28;20038;-81
2022/01/28 05:04:43;;;;;;;2.78;1.10;;;;;;;17.19;47.51;103313.22;4969626;28;20117;-81
2022/01/28 05:07:35;;;;;;;3.42;1.17;;;;;;;17.20;47.74;103321.91;4990149;28;20037;-82
2022/01/28 05:25:49;;;;;;;2.95;0.95;;;;;;;17.17;47.51;103345.25;5005670;28;20165;-81
2022/01/28 05:28:19;;;;;;;3.65;1.27;;;;;;;17.16;47.47;103340.84;4980780;28;20022;-80
2022/01/28 05:30:44;;;;;;;3.47;1.20;;;;;;;17.15;47.43;103347.78;4975858;28;20061;-80
2022/01/28 05:33:09;;;;;;;3.40;1.33;;;;;;;17.16;47.57;103351.25;4971549;28;20018;-81
2022/01/28 05:35:35;;;;;;;4.00;1.10;;;;;;;17.16;47.49;103339.16;4987980;28;20030;-81
2022/01/28 05:38:00;;;;;;;3.42;1.10;;;;;;;17.15;47.47;103346.91;4969441;28;20080;-81
2022/01/28 05:40:26;;;;;;;2.15;1.00;;;;;;;17.16;47.58;103353.84;4968890;28;20023;-80
2022/01/28 05:42:51;;;;;;;3.17;1.20;;;;;;;17.14;47.51;103353.84;4968335;28;20030;-81
2022/01/28 05:45:16;;;;;;;2.42;1.00;;;;;;;17.15;47.51;103350.38;4968781;28;20117;-80
2022/01/28 05:47:42;;;;;;;2.40;0.95;;;;;;;17.14;47.48;103346.03;4969623;28;20045;-80
2022/01/28 05:50:08;;;;;;;2.72;0.98;;;;;;;17.15;47.54;103349.50;4953775;28;20022;-80
2022/01/28 05:52:33;;;;;;;3.10;1.10;;;;;;;17.15;47.64;103357.31;4955524;28;20025;-80
2022/01/28 05:54:59;;;;;;;2.10;1.10;;;;;;;17.14;47.62;103353.84;4987960;28;20113;-80
2022/01/28 05:57:24;;;;;;;3.85;1.15;;;;;;;17.13;47.35;103354.66;4985957;28;20476;-81
2022/01/28 05:59:50;;;;;;;3.65;1.30;;;;;;;17.15;47.68;103359.91;4982712;28;20133;-81
2022/01/28 06:02:17;;;;;;;2.70;1.17;;;;;;;17.13;47.43;103372.88;4965973;28;20093;-80
2022/01/28 06:04:42;;;;;;;3.60;1.30;;;;;;;17.14;47.44;103361.63;4965351;28;20122;-81
2022/01/28 06:07:08;;;;;;;4.45;1.13;;;;;;;17.13;47.81;103365.06;4983524;28;20177;-81
2022/01/28 06:09:33;;;;;;;2.53;1.05;;;;;;;17.13;47.44;103365.06;4986182;28;20031;-82
2022/01/28 06:12:00;;;;;;;7.28;2.40;;;;;;;17.29;48.04;103369.06;4972014;28;20555;-80
2022/01/28 06:17:16;;;;;;;10.52;3.33;;;;;;;17.34;48.19;103383.09;5251139;23;20050;-84
2022/01/28 06:19:43;;;;;;;11.23;3.90;;;;;;;17.31;48.17;103384.69;4959570;28;20070;-81
2022/01/28 06:22:08;;;;;;;8.95;3.30;;;;;;;17.34;48.22;103390.91;4971440;28;20389;-78
2022/01/28 06:24:34;;;;;;;8.55;3.10;;;;;;;17.39;48.28;103388.44;4971866;28;20078;-80
2022/01/28 06:26:59;;;;;;;7.70;2.70;;;;;;;17.41;48.47;103394.59;4970765;28;20027;-78
2022/01/28 06:29:25;;;;;;;9.18;3.13;;;;;;;17.40;48.37;103398.91;4968717;28;20034;-78
2022/01/28 06:31:50;;;;;;;10.18;2.75;;;;;;;17.41;48.30;103405.88;4953348;28;20027;-78
2022/01/28 06:34:16;;;;;;;6.80;2.80;;;;;;;17.43;48.78;103412.00;4952878;28;20081;-78
2022/01/28 06:36:41;;;;;;;8.18;2.75;;;;;;;17.43;48.54;103417.22;4955082;28;20026;-78
2022/01/28 06:39:07;;;;;;;8.43;2.85;;;;;;;17.44;48.55;103425.91;4955700;28;20489;-78
2022/01/28 06:41:32;;;;;;;5.97;2.60;;;;;;;17.46;48.67;103437.25;4956017;28;20031;-79
2022/01/28 06:43:58;;;;;;;7.72;2.42;;;;;;;17.45;48.67;103436.38;4958539;28;20098;-80
2022/01/28 06:46:31;;;;;;;6.43;2.38;;;;;;;17.46;48.62;103443.38;4961729;28;20035;-79
2022/01/28 06:48:56;;;;;;;6.85;2.25;;;;;;;17.47;48.44;103441.66;4962317;28;20037;-81
2022/01/28 06:51:22;;;;;;;6.25;2.40;;;;;;;17.46;48.42;103437.25;4961254;28;20058;-81
2022/01/28 06:53:47;;;;;;;6.82;2.45;;;;;;;17.46;48.67;103439.84;4960191;28;20030;-79
2022/01/28 06:56:12;;;;;;;5.70;2.42;;;;;;;17.47;48.60;103444.25;4975692;28;20030;-79
2022/01/28 06:58:38;;;;;;;5.35;2.38;;;;;;;17.47;48.65;103439.03;4960531;28;20085;-80
2022/01/28 07:01:03;;;;;;;4.40;1.95;;;;;;;17.47;48.94;103432.09;4952701;28;20034;-77
2022/01/28 07:03:28;;;;;;;7.10;2.30;;;;;;;17.48;48.78;103430.38;4967412;28;20480;-78
2022/01/28 07:05:54;;;;;;;4.78;2.08;;;;;;;17.48;48.72;103438.19;4950365;28;20027;-78
2022/01/28 07:08:19;;;;;;;5.93;1.90;;;;;;;17.49;48.58;103445.19;4950758;28;20041;-79
2022/01/28 07:10:44;;;;;;;5.85;2.05;;;;;;;17.51;48.59;103440.00;4966216;28;20078;-79
2022/01/28 07:13:12;;;;;;;7.45;2.30;;;;;;;17.51;48.49;103434.78;4966924;28;20026;-78
2022/01/28 07:15:38;;;;;;;4.55;1.90;;;;;;;17.51;48.65;103438.31;4966377;28;20034;-79
2022/01/28 07:18:04;;;;;;;4.60;2.00;;;;;;;17.51;48.59;103443.50;4955587;28;20105;-79
2022/01/28 07:20:31;;;;;;;4.05;1.92;;;;;;;17.52;48.80;103431.38;4985580;28;20041;-79
2022/01/28 07:22:57;;;;;;;8.82;2.10;;;;;;;17.52;48.85;103433.97;4987027;28;20042;-80
2022/01/28 07:25:23;;;;;;;6.30;2.30;;;;;;;17.53;48.71;103433.13;4985561;28;20029;-80
2022/01/28 07:27:48;;;;;;;5.13;1.90;;;;;;;17.53;48.88;103433.13;4985126;28;20042;-80
2022/01/28 07:30:14;;;;;;;6.63;2.10;;;;;;;17.52;48.80;103434.84;4967659;28;20030;-79
2022/01/28 07:32:40;;;;;;;6.82;2.00;;;;;;;17.53;48.60;103434.03;4965657;28;20033;-79
2022/01/28 07:35:06;;;;;;;4.97;1.80;;;;;;;17.54;48.79;103434.91;4950431;28;20447;-79
2022/01/28 07:37:31;;;;;;;6.50;2.25;;;;;;;17.56;48.80;103443.66;4966032;28;20117;-79
2022/01/28 07:39:57;;;;;;;3.58;1.80;;;;;;;17.57;48.59;103455.81;4999297;28;20022;-79
2022/01/28 07:42:24;;;;;;;5.60;2.15;;;;;;;17.56;48.65;103456.69;4954474;28;20030;-78
2022/01/28 07:44:49;;;;;;;4.88;1.70;;;;;;;17.57;48.61;103459.34;4952801;28;20121;-79
2022/01/28 07:47:15;;;;;;;4.47;1.70;;;;;;;17.58;48.88;103468.03;4966502;28;20046;-79
2022/01/28 07:49:40;;;;;;;4.22;1.83;;;;;;;17.60;48.60;103474.16;4982303;28;20476;-78
2022/01/28 07:52:06;;;;;;;5.13;2.17;;;;;;;17.61;49.05;103475.94;5000631;28;20022;-80
2022/01/28 07:54:31;;;;;;;5.55;1.90;;;;;;;17.61;48.66;103469.00;4950781;28;20033;-82
2022/01/28 07:56:57;;;;;;;8.00;1.70;;;;;;;17.63;48.64;103464.72;4969468;28;20033;-81
2022/01/28 07:59:22;;;;;;;4.43;1.90;;;;;;;17.64;48.83;103473.44;4968705;28;20465;-80
2022/01/28 08:01:48;;;;;;;3.15;1.67;;;;;;;17.64;48.60;103482.13;4971830;28;20038;-80
2022/01/28 08:04:13;;;;;;;5.05;1.63;;;;;;;17.65;48.55;103477.78;4971589;28;20027;-80
2022/01/28 08:06:39;;;;;;;4.45;1.50;;;;;;;17.66;48.77;103487.41;4969913;28;20023;-80
2022/01/28 08:09:04;;;;;;;4.65;1.80;;;;;;;17.67;48.66;103494.34;4982684;28;20026;-80
2022/01/28 08:11:30;;;;;;;4.22;1.50;;;;;;;17.68;48.53;103503.91;4965682;28;20415;-80
2022/01/28 08:13:56;;;;;;;4.15;1.90;;;;;;;17.70;48.71;103499.66;4965674;28;20034;-79
2022/01/28 08:16:22;;;;;;;4.53;1.60;;;;;;;17.70;48.52;103515.28;4981298;28;20037;-80
2022/01/28 08:18:47;;;;;;;4.15;1.60;;;;;;;17.72;48.46;103523.16;4981536;28;20042;-79
2022/01/28 08:21:15;;;;;;;4.78;1.50;;;;;;;17.74;48.38;103519.75;4982386;28;20516;-79
2022/01/28 08:23:41;;;;;;;4.40;1.70;;;;;;;17.77;48.47;103519.88;4982970;28;20074;-79
2022/01/28 08:26:06;;;;;;;5.68;1.63;;;;;;;17.79;48.44;103519.91;4966202;28;20057;-80
2022/01/28 08:28:32;;;;;;;4.82;1.52;;;;;;;17.79;48.12;103523.41;4949286;28;20084;-80
2022/01/28 08:30:57;;;;;;;4.35;1.55;;;;;;;17.82;48.44;103512.22;4950255;28;20499;-80
2022/01/28 08:33:23;;;;;;;3.80;1.70;;;;;;;17.87;48.31;103519.34;4965531;28;20033;-80
2022/01/28 08:35:52;;;;;;;5.75;1.80;;;;;;;17.94;47.90;103525.63;4966398;28;20031;-79
2022/01/28 08:38:24;;;;;;;4.60;1.50;;;;;;;17.96;47.90;103533.50;4967825;28;20509;-79
2022/01/28 08:40:55;;;;;;;3.58;1.60;;;;;;;17.92;48.05;103529.03;4979585;28;20022;-80
2022/01/28 08:43:21;;;;;;;3.03;1.60;;;;;;;17.91;48.31;103522.94;4963112;28;20061;-79
2022/01/28 08:45:47;;;;;;;3.55;1.67;;;;;;;17.96;47.99;103528.28;4982208;28;20026;-79
2022/01/28 08:48:12;;;;;;;3.63;1.38;;;;;;;17.95;47.89;103527.41;4980716;28;20164;-80
2022/01/28 08:50:37;;;;;;;3.58;1.50;;;;;;;17.93;47.73;103525.59;4964125;28;20178;-79
2022/01/28 08:53:03;;;;;;;4.97;1.40;;;;;;;17.91;48.01;103524.66;4982204;28;20022;-80
2022/01/28 08:55:28;;;;;;;4.03;1.40;;;;;;;17.93;47.86;103536.91;4980950;28;20038;-80
2022/01/28 08:57:54;;;;;;;3.15;1.30;;;;;;;17.98;47.61;103531.84;4965922;28;20034;-80
2022/01/28 09:00:22;;;;;;;3.20;1.25;;;;;;;18.01;47.66;103531.94;4963424;28;20026;-80
2022/01/28 09:02:48;;;;;;;4.05;1.42;;;;;;;18.03;47.61;103531.16;4963938;28;20026;-80
2022/01/28 09:05:13;;;;;;;4.20;1.50;;;;;;;18.03;47.46;103533.75;4962499;28;20129;-79
2022/01/28 09:07:39;;;;;;;2.88;1.52;;;;;;;18.03;47.58;103548.47;4996652;28;20050;-80
2022/01/28 09:10:12;;;;;;;2.50;1.20;;;;;;;18.03;47.54;103551.09;4963477;28;20030;-80
2022/01/28 09:12:46;;;;;;;5.90;1.30;;;;;;;18.01;47.42;103555.41;4982012;28;20030;-80
2022/01/28 09:15:11;;;;;;;3.90;1.45;;;;;;;17.99;47.52;103559.66;4954947;28;20038;-79
2022/01/28 09:17:37;;;;;;;4.78;1.60;;;;;;;17.97;47.82;103563.94;4963771;28;20047;-80
2022/01/28 09:20:02;;;;;;;3.08;1.50;;;;;;;17.97;47.63;103570.03;4945642;28;20041;-79
2022/01/28 09:22:28;;;;;;;3.70;1.48;;;;;;;17.97;47.66;103583.06;4979352;28;20110;-80
2022/01/28 09:24:53;;;;;;;3.83;1.50;;;;;;;17.94;47.83;103577.72;4996508;28;20037;-79
2022/01/28 09:27:19;;;;;;;3.22;1.40;;;;;;;17.95;47.79;103579.53;4947470;28;20108;-79
2022/01/28 09:29:44;;;;;;;3.40;1.35;;;;;;;17.94;47.80;103582.06;4963049;28;20037;-79
2022/01/28 09:32:10;;;;;;;3.25;1.50;;;;;;;17.93;47.71;103575.97;4946607;28;20022;-79
2022/01/28 09:34:35;;;;;;;3.63;1.38;;;;;;;17.93;47.77;103569.91;4979204;28;20033;-79
2022/01/28 09:37:00;;;;;;;3.85;1.50;;;;;;;17.92;47.78;103578.53;4948351;28;20065;-80
2022/01/28 09:39:26;;;;;;;3.88;1.40;;;;;;;17.93;47.78;103583.78;4980466;28;20122;-79
2022/01/28 09:41:59;;;;;;;3.33;1.40;;;;;;;17.92;47.80;103576.84;4983555;28;20030;-79
2022/01/28 09:44:25;;;;;;;3.63;1.30;;;;;;;17.92;47.79;103576.84;5002903;28;20027;-80
2022/01/28 09:46:51;;;;;;;4.43;1.75;;;;;;;17.94;47.68;103576.84;4968665;28;20030;-80
2022/01/28 09:49:16;;;;;;;3.67;1.45;;;;;;;17.93;47.68;103568.16;4968627;28;20085;-80
2022/01/28 09:51:42;;;;;;;3.30;1.20;;;;;;;17.95;47.52;103571.72;4968317;28;20030;-79
2022/01/28 09:54:07;;;;;;;2.33;1.23;;;;;;;18.00;47.29;103577.94;4953392;28;20041;-80
2022/01/28 09:56:33;;;;;;;3.40;1.15;;;;;;;18.05;47.06;103576.38;5003277;28;20031;-80
2022/01/28 09:58:59;;;;;;;3.40;1.30;;;;;;;18.09;46.96;103574.75;4972487;28;20034;-80
2022/01/28 10:01:26;;;;;;;2.05;1.02;;;;;;;18.06;47.07;103579.88;4970516;28;20037;-80
2022/01/28 10:04:06;;;;;;;3.47;1.50;;;;;;;18.03;47.38;103584.97;4970465;28;20045;-79
2022/01/28 10:06:35;;;;;;;2.95;1.20;;;;;;;18.00;47.36;103580.53;4986145;28;20440;-80
2022/01/28 10:09:11;;;;;;;3.72;1.40;;;;;;;17.98;47.25;103583.94;4986762;28;20060;-79
2022/01/28 10:11:38;;;;;;;2.47;1.20;;;;;;;17.96;47.43;103583.88;4972021;28;20045;-80
2022/01/28 10:14:26;;;;;;;2.05;1.20;;;;;;;17.96;47.21;103596.91;4988870;28;20022;-80
2022/01/28 10:16:58;;;;;;;3.00;1.40;;;;;;;17.95;47.18;103595.16;4992920;28;20080;-80
2022/01/28 10:19:36;;;;;;;3.42;1.38;;;;;;;17.95;47.17;103587.34;5006075;28;20057;-80
2022/01/28 10:22:03;;;;;;;3.53;1.30;;;;;;;17.95;47.21;103586.47;4988328;28;20026;-80
2022/01/28 10:24:29;;;;;;;3.22;1.45;;;;;;;17.93;47.19;103590.72;4970828;28;20115;-79
2022/01/28 10:27:06;;;;;;;2.78;1.17;;;;;;;17.94;46.99;103587.28;4988883;28;20062;-79
2022/01/28 10:29:43;;;;;;;3.25;1.35;;;;;;;17.93;46.93;103581.19;4987216;28;20035;-80
2022/01/28 10:32:16;;;;;;;2.72;1.30;;;;;;;17.92;47.34;103587.25;4987780;28;20469;-79
2022/01/28 10:34:50;;;;;;;2.35;1.23;;;;;;;17.92;47.11;103582.03;5005592;28;20054;-79
2022/01/28 10:37:28;;;;;;;3.92;1.27;;;;;;;17.91;47.20;103580.25;4988733;28;20503;-79
2022/01/28 10:39:58;;;;;;;2.90;1.40;;;;;;;17.92;47.21;103575.91;4974469;28;20038;-80
2022/01/28 10:42:33;;;;;;;2.47;1.10;;;;;;;17.91;47.04;103575.03;5010563;28;20026;-80
2022/01/28 10:45:04;;;;;;;3.00;1.50;;;;;;;17.90;47.12;103565.47;4992363;28;20038;-79
2022/01/28 10:47:30;;;;;;;4.28;1.40;;;;;;;17.89;47.14;103569.78;4988622;28;20404;-79
2022/01/28 10:49:56;;;;;;;2.60;1.25;;;;;;;17.87;46.96;103566.22;4988013;28;20041;-79
2022/01/28 10:52:30;;;;;;;2.40;1.00;;;;;;;17.87;47.05;103570.56;4968659;28;20026;-80
2022/01/28 10:54:56;;;;;;;4.18;1.30;;;;;;;17.86;47.22;103577.50;4986908;28;20025;-79
2022/01/28 10:57:22;;;;;;;2.70;1.40;;;;;;;17.86;47.17;103574.03;4970973;28;20035;-79
2022/01/28 10:59:48;;;;;;;2.35;1.02;;;;;;;17.88;47.04;103577.56;4987575;28;20037;-80
2022/01/28 11:02:13;;;;;;;2.90;1.35;;;;;;;17.89;47.10;103576.72;4987026;28;20173;-79
2022/01/28 11:04:42;;;;;;;4.03;1.30;;;;;;;17.92;46.81;103576.84;4987260;28;20038;-79
2022/01/28 11:07:07;;;;;;;3.17;1.38;;;;;;;17.91;47.13;103575.03;4985893;28;20030;-79
2022/01/28 11:09:33;;;;;;;2.95;1.17;;;;;;;17.89;47.00;103569.78;4970333;28;20034;-78
2022/01/28 11:12:00;;;;;;;2.38;1.00;;;;;;;17.91;46.92;103567.22;4954159;28;20062;-83
2022/01/28 11:14:26;;;;;;;5.60;1.45;;;;;;;17.92;47.18;103563.81;4972089;28;20034;-79
2022/01/28 11:16:52;;;;;;;5.82;1.15;;;;;;;17.92;46.95;103556.00;4987221;28;20026;-82
2022/01/28 11:19:21;;;;;;;4.05;1.23;;;;;;;17.92;46.79;103555.06;4989115;28;20518;-79
2022/01/28 11:21:46;;;;;;;4.32;1.33;;;;;;;17.92;47.12;103555.06;4988660;28;20090;-77
2022/01/28 11:24:30;;;;;;;2.47;1.05;;;;;;;17.92;47.14;103553.38;5003773;28;20077;-78
2022/01/28 11:27:17;;;;;;;3.50;1.50;;;;;;;17.92;47.30;103545.56;4987751;28;20081;-80
2022/01/28 11:29:43;;;;;;;2.40;1.20;;;;;;;17.94;47.26;103550.81;4984907;28;20026;-78
2022/01/28 11:32:17;;;;;;;3.60;1.45;;;;;;;17.98;47.38;103552.69;4984997;28;20030;-79
2022/01/28 11:35:02;;;;;;;4.00;1.27;;;;;;;18.01;47.24;103550.19;4985042;28;20042;-79
2022/01/28 11:37:34;;;;;;;2.78;1.23;;;;;;;18.00;47.26;103541.47;4984517;28;20022;-81
2022/01/28 11:40:10;;;;;;;2.47;1.05;;;;;;;18.01;47.10;103545.84;4983397;28;20026;-80
2022/01/28 11:42:36;;;;;;;4.93;1.40;;;;;;;18.06;47.22;103532.97;5006502;28;20033;-82
2022/01/28 11:45:05;;;;;;;3.67;1.10;;;;;;;18.08;47.18;103519.13;4983407;28;20018;-82
2022/01/28 11:47:37;;;;;;;2.08;1.00;;;;;;;18.09;47.18;103531.34;4998196;28;20029;-81
2022/01/28 11:50:13;;;;;;;2.45;1.00;;;;;;;18.12;47.32;103521.84;4997311;28;20023;-82
2022/01/28 11:52:46;;;;;;;4.15;1.02;;;;;;;18.15;47.16;103512.41;4976565;28;20041;-81
2022/01/28 11:55:32;;;;;;;;;;;;;;;18.13;47.16;103502.78;4973957;28;20034;-81
2022/01/28 11:58:02;;;;;;;3.20;1.00;;;;;;;18.14;47.19;103496.69;5009588;28;19909;-81
2022/01/28 12:00:47;;;;;;;3.13;1.30;;;;;;;18.16;47.15;103498.53;4996561;28;20030;-82
2022/01/28 12:03:44;;;;;;;2.10;0.93;;;;;;;18.16;47.07;103490.72;4996926;28;20031;-82
2022/01/28 12:06:31;;;;;;;2.10;0.97;;;;;;;18.19;47.17;103490.81;4972288;29;20110;-82
2022/01/28 12:08:59;;;;;;;2.65;1.10;;;;;;;18.24;47.00;103491.81;4953671;29;20050;-81
2022/01/28 12:11:51;;;;;;;2.80;0.90;;;;;;;18.23;47.09;103487.47;4955824;29;20047;-82
2022/01/28 12:15:05;;;;;;;1.75;0.90;;;;;;;18.23;47.47;103483.97;4971171;29;20027;-82
2022/01/28 12:17:42;;;;;;;2.88;1.00;;;;;;;18.26;47.10;103478.84;4971631;29;20084;-82
2022/01/28 12:20:22;;;;;;;2.40;0.90;;;;;;;18.26;47.14;103476.22;4948769;29;20051;-82
2022/01/28 12:22:59;;;;;;;2.13;1.08;;;;;;;18.23;47.20;103464.00;4946465;29;20179;-81
2022/01/28 12:25:56;;;;;;;3.65;1.20;;;;;;;18.27;47.40;103462.38;4948097;29;20036;-82
2022/01/28 12:28:46;;;;;;;2.78;1.20;;;;;;;18.25;47.52;103464.94;4946738;29;20044;-81
2022/01/28 12:31:32;;;;;;;2.65;1.10;;;;;;;18.23;47.44;103456.19;4945384;29;20051;-81
2022/01/28 12:34:03;;;;;;;2.17;0.88;;;;;;;18.24;47.57;103447.50;4946021;29;20028;-82
2022/01/28 12:36:32;;;;;;;2.22;1.10;;;;;;;18.26;47.38;103445.81;4920068;28;20066;-81
2022/01/28 12:39:32;;;;;;;2.50;0.98;;;;;;;18.26;47.04;103442.34;4987965;28;20086;-82
2022/01/28 12:42:38;;;;;;;2.78;0.98;;;;;;;18.24;47.33;103436.19;4985267;28;20023;-87